sensor_id;sensor_type;location;lat;lon;timestamp;pressure;altitude;pressure_sealevel;temperature;humidity
56006;BME280;41888;44.696;10.522;2023-02-22T00:00:29;100889.66;;;9.52;100.00
56006;BME280;41888;44.696;10.522;2023-02-22T00:03:22;100880.34;;;9.56;100.00
56006;BME280;41888;44.696;10.522;2023-02-22T00:05:58;100888.47;;;9.55;100.00
56006;BME280;41888;44.696;10.522;2023-02-22T00:08:27;100884.47;;;9.44;100.00
56006;BME280;41888;44.696;10.522;2023-02-22T00:11:05;100889.22;;;9.49;100.00
56006;BME280;41888;44.696;10.522;2023-02-22T00:13:35;100883.81;;;9.57;100.00
56006;BME280;41888;44.696;10.522;2023-02-22T00:16:02;100885.16;;;9.67;100.00
56006;BME280;41888;44.696;10.522;2023-02-22T00:18:29;100885.06;;;9.61;100.00
56006;BME280;41888;44.696;10.522;2023-02-22T00:20:57;100883.44;;;9.60;100.00
56006;BME280;41888;44.696;10.522;2023-02-22T00:23:28;100876.75;;;9.49;100.00
56006;BME280;41888;44.696;10.522;2023-02-22T00:25:55;100876.50;;;9.44;100.00
56006;BME280;41888;44.696;10.522;2023-02-22T00:28:22;100879.25;;;9.51;100.00
56006;BME280;41888;44.696;10.522;2023-02-22T00:30:49;100875.41;;;9.39;100.00
56006;BME280;41888;44.696;10.522;2023-02-22T00:33:16;100876.31;;;9.31;100.00
56006;BME280;41888;44.696;10.522;2023-02-22T00:35:43;100879.25;;;9.36;100.00
56006;BME280;41888;44.696;10.522;2023-02-22T00:38:16;100872.94;;;9.37;100.00
56006;BME280;41888;44.696;10.522;2023-02-22T00:40:43;100871.66;;;9.33;100.00
56006;BME280;41888;44.696;10.522;2023-02-22T00:43:10;100875.31;;;9.32;100.00
56006;BME280;41888;44.696;10.522;2023-02-22T00:45:36;100872.81;;;9.60;100.00
56006;BME280;41888;44.696;10.522;2023-02-22T00:48:04;100865.31;;;9.49;100.00
56006;BME280;41888;44.696;10.522;2023-02-22T00:50:31;100866.44;;;9.40;100.00
56006;BME280;41888;44.696;10.522;2023-02-22T00:52:59;100861.56;;;9.43;100.00
56006;BME280;41888;44.696;10.522;2023-02-22T00:55:28;100867.00;;;9.35;100.00
56006;BME280;41888;44.696;10.522;2023-02-22T00:57:55;100871.66;;;9.33;100.00
56006;BME280;41888;44.696;10.522;2023-02-22T01:00:26;100868.44;;;9.38;100.00
56006;BME280;41888;44.696;10.522;2023-02-22T01:02:53;100865.19;;;9.36;100.00
56006;BME280;41888;44.696;10.522;2023-02-22T01:05:23;100861.88;;;9.33;100.00
56006;BME280;41888;44.696;10.522;2023-02-22T01:07:50;100860.41;;;9.31;100.00
56006;BME280;41888;44.696;10.522;2023-02-22T01:10:20;100869.19;;;9.31;100.00
56006;BME280;41888;44.696;10.522;2023-02-22T01:12:47;100868.34;;;9.31;100.00
56006;BME280;41888;44.696;10.522;2023-02-22T01:15:17;100863.53;;;9.35;100.00
56006;BME280;41888;44.696;10.522;2023-02-22T01:17:47;100859.22;;;9.33;100.00
56006;BME280;41888;44.696;10.522;2023-02-22T01:20:14;100864.16;;;9.22;100.00
56006;BME280;41888;44.696;10.522;2023-02-22T01:22:43;100860.91;;;9.20;100.00
56006;BME280;41888;44.696;10.522;2023-02-22T01:25:10;100854.38;;;9.22;100.00
56006;BME280;41888;44.696;10.522;2023-02-22T01:27:38;100857.47;;;9.26;100.00
56006;BME280;41888;44.696;10.522;2023-02-22T01:30:05;100851.53;;;9.24;100.00
56006;BME280;41888;44.696;10.522;2023-02-22T01:32:37;100850.63;;;9.17;100.00
56006;BME280;41888;44.696;10.522;2023-02-22T01:35:07;100848.63;;;9.19;100.00
56006;BME280;41888;44.696;10.522;2023-02-22T01:37:34;100841.09;;;9.22;100.00
56006;BME280;41888;44.696;10.522;2023-02-22T01:40:02;100838.88;;;9.26;100.00
56006;BME280;41888;44.696;10.522;2023-02-22T01:42:29;100837.53;;;9.15;100.00
56006;BME280;41888;44.696;10.522;2023-02-22T01:48:17;100836.78;;;9.21;100.00
56006;BME280;41888;44.696;10.522;2023-02-22T01:51:01;100826.38;;;9.20;100.00
56006;BME280;41888;44.696;10.522;2023-02-22T01:53:37;100827.66;;;9.24;100.00
56006;BME280;41888;44.696;10.522;2023-02-22T01:56:05;100826.09;;;9.15;100.00
56006;BME280;41888;44.696;10.522;2023-02-22T01:58:33;100821.69;;;9.22;100.00
56006;BME280;41888;44.696;10.522;2023-02-22T02:01:00;100817.50;;;9.13;100.00
56006;BME280;41888;44.696;10.522;2023-02-22T02:03:32;100819.16;;;9.14;100.00
56006;BME280;41888;44.696;10.522;2023-02-22T02:06:03;100819.50;;;9.11;100.00
56006;BME280;41888;44.696;10.522;2023-02-22T02:08:41;100821.81;;;9.14;100.00
56006;BME280;41888;44.696;10.522;2023-02-22T02:11:12;100818.06;;;9.08;100.00
56006;BME280;41888;44.696;10.522;2023-02-22T02:13:38;100826.59;;;9.04;100.00
56006;BME280;41888;44.696;10.522;2023-02-22T02:16:05;100811.66;;;9.03;100.00
56006;BME280;41888;44.696;10.522;2023-02-22T02:18:31;100813.78;;;8.93;100.00
56006;BME280;41888;44.696;10.522;2023-02-22T02:34:53;100809.22;;;8.86;100.00
56006;BME280;41888;44.696;10.522;2023-02-22T02:40:27;100809.41;;;8.70;100.00
56006;BME280;41888;44.696;10.522;2023-02-22T02:43:03;100808.75;;;8.68;100.00
56006;BME280;41888;44.696;10.522;2023-02-22T02:48:37;100804.66;;;8.66;100.00
56006;BME280;41888;44.696;10.522;2023-02-22T02:51:10;100810.28;;;8.63;100.00
56006;BME280;41888;44.696;10.522;2023-02-22T02:53:43;100814.44;;;8.65;100.00
56006;BME280;41888;44.696;10.522;2023-02-22T02:56:09;100810.78;;;8.66;100.00
56006;BME280;41888;44.696;10.522;2023-02-22T02:58:47;100806.66;;;8.64;100.00
56006;BME280;41888;44.696;10.522;2023-02-22T03:01:26;100802.72;;;8.60;100.00
56006;BME280;41888;44.696;10.522;2023-02-22T03:06:57;100804.53;;;8.59;100.00
56006;BME280;41888;44.696;10.522;2023-02-22T03:15:20;100801.25;;;8.42;100.00
56006;BME280;41888;44.696;10.522;2023-02-22T03:17:58;100794.50;;;8.40;100.00
56006;BME280;41888;44.696;10.522;2023-02-22T03:20:29;100795.94;;;8.42;100.00
56006;BME280;41888;44.696;10.522;2023-02-22T03:23:06;100789.53;;;8.37;100.00
56006;BME280;41888;44.696;10.522;2023-02-22T03:25:42;100794.94;;;8.43;100.00
56006;BME280;41888;44.696;10.522;2023-02-22T03:28:14;100791.19;;;8.38;100.00
56006;BME280;41888;44.696;10.522;2023-02-22T03:33:31;100793.97;;;8.22;100.00
56006;BME280;41888;44.696;10.522;2023-02-22T03:36:05;100798.72;;;8.26;100.00
56006;BME280;41888;44.696;10.522;2023-02-22T03:38:36;100793.41;;;8.26;100.00
56006;BME280;41888;44.696;10.522;2023-02-22T03:41:04;100803.19;;;8.26;100.00
56006;BME280;41888;44.696;10.522;2023-02-22T03:43:41;100793.44;;;8.41;100.00
56006;BME280;41888;44.696;10.522;2023-02-22T03:46:09;100792.19;;;8.52;100.00
56006;BME280;41888;44.696;10.522;2023-02-22T03:48:50;100788.91;;;8.50;100.00
56006;BME280;41888;44.696;10.522;2023-02-22T03:51:19;100790.63;;;8.57;100.00
56006;BME280;41888;44.696;10.522;2023-02-22T03:53:46;100797.31;;;8.53;100.00
56006;BME280;41888;44.696;10.522;2023-02-22T03:56:21;100791.38;;;8.51;100.00
56006;BME280;41888;44.696;10.522;2023-02-22T03:58:49;100790.56;;;8.65;100.00
56006;BME280;41888;44.696;10.522;2023-02-22T04:01:16;100792.13;;;8.60;100.00
56006;BME280;41888;44.696;10.522;2023-02-22T04:03:45;100793.56;;;8.62;100.00
56006;BME280;41888;44.696;10.522;2023-02-22T04:06:11;100794.47;;;8.69;100.00
56006;BME280;41888;44.696;10.522;2023-02-22T04:08:37;100796.22;;;8.62;100.00
56006;BME280;41888;44.696;10.522;2023-02-22T04:11:04;100799.06;;;8.61;100.00
56006;BME280;41888;44.696;10.522;2023-02-22T04:13:30;100796.31;;;8.69;100.00
56006;BME280;41888;44.696;10.522;2023-02-22T04:15:56;100799.34;;;8.66;100.00
56006;BME280;41888;44.696;10.522;2023-02-22T04:18:22;100796.47;;;8.67;100.00
56006;BME280;41888;44.696;10.522;2023-02-22T04:20:48;100801.88;;;8.74;100.00
56006;BME280;41888;44.696;10.522;2023-02-22T04:23:15;100801.06;;;8.73;100.00
56006;BME280;41888;44.696;10.522;2023-02-22T04:25:42;100797.06;;;8.77;100.00
56006;BME280;41888;44.696;10.522;2023-02-22T04:28:08;100794.13;;;8.72;100.00
56006;BME280;41888;44.696;10.522;2023-02-22T04:30:34;100794.47;;;8.69;100.00
56006;BME280;41888;44.696;10.522;2023-02-22T04:33:00;100799.59;;;8.85;100.00
56006;BME280;41888;44.696;10.522;2023-02-22T04:35:26;100799.22;;;8.88;100.00
56006;BME280;41888;44.696;10.522;2023-02-22T04:37:52;100792.63;;;8.84;100.00
56006;BME280;41888;44.696;10.522;2023-02-22T04:40:19;100798.69;;;8.78;100.00
56006;BME280;41888;44.696;10.522;2023-02-22T04:42:45;100795.22;;;8.93;100.00
56006;BME280;41888;44.696;10.522;2023-02-22T04:45:11;100795.94;;;8.86;100.00
56006;BME280;41888;44.696;10.522;2023-02-22T04:47:37;100790.44;;;8.73;100.00
56006;BME280;41888;44.696;10.522;2023-02-22T04:50:05;100791.38;;;8.80;100.00
56006;BME280;41888;44.696;10.522;2023-02-22T04:52:32;100790.66;;;8.72;100.00
56006;BME280;41888;44.696;10.522;2023-02-22T04:54:58;100787.91;;;8.65;100.00
56006;BME280;41888;44.696;10.522;2023-02-22T04:57:24;100780.94;;;8.64;100.00
56006;BME280;41888;44.696;10.522;2023-02-22T04:59:50;100778.56;;;8.55;100.00
56006;BME280;41888;44.696;10.522;2023-02-22T05:02:17;100783.78;;;8.63;100.00
56006;BME280;41888;44.696;10.522;2023-02-22T05:04:43;100788.34;;;8.54;100.00
56006;BME280;41888;44.696;10.522;2023-02-22T05:07:10;100790.19;;;8.54;100.00
56006;BME280;41888;44.696;10.522;2023-02-22T05:09:36;100783.53;;;8.72;100.00
56006;BME280;41888;44.696;10.522;2023-02-22T05:12:03;100786.34;;;8.71;100.00
56006;BME280;41888;44.696;10.522;2023-02-22T05:14:29;100783.13;;;8.90;100.00
56006;BME280;41888;44.696;10.522;2023-02-22T05:16:58;100786.88;;;8.81;100.00
56006;BME280;41888;44.696;10.522;2023-02-22T05:19:25;100786.78;;;8.74;100.00
56006;BME280;41888;44.696;10.522;2023-02-22T05:21:51;100781.72;;;8.94;100.00
56006;BME280;41888;44.696;10.522;2023-02-22T05:24:17;100778.91;;;8.96;100.00
56006;BME280;41888;44.696;10.522;2023-02-22T05:26:45;100779.28;;;8.93;100.00
56006;BME280;41888;44.696;10.522;2023-02-22T05:29:12;100782.69;;;8.72;100.00
56006;BME280;41888;44.696;10.522;2023-02-22T05:31:38;100787.91;;;8.65;100.00
56006;BME280;41888;44.696;10.522;2023-02-22T05:34:06;100783.78;;;8.63;100.00
56006;BME280;41888;44.696;10.522;2023-02-22T05:36:32;100778.69;;;8.61;100.00
56006;BME280;41888;44.696;10.522;2023-02-22T05:38:58;100785.81;;;8.61;100.00
56006;BME280;41888;44.696;10.522;2023-02-22T05:41:25;100779.78;;;8.67;100.00
56006;BME280;41888;44.696;10.522;2023-02-22T05:43:51;100779.22;;;8.71;100.00
56006;BME280;41888;44.696;10.522;2023-02-22T05:46:17;100784.31;;;8.73;100.00
56006;BME280;41888;44.696;10.522;2023-02-22T05:48:44;100783.03;;;8.69;100.00
56006;BME280;41888;44.696;10.522;2023-02-22T05:51:10;100784.53;;;8.71;100.00
56006;BME280;41888;44.696;10.522;2023-02-22T05:53:37;100783.69;;;8.71;100.00
56006;BME280;41888;44.696;10.522;2023-02-22T05:56:03;100791.84;;;8.69;100.00
56006;BME280;41888;44.696;10.522;2023-02-22T05:58:29;100784.88;;;8.68;100.00
56006;BME280;41888;44.696;10.522;2023-02-22T06:00:55;100788.44;;;8.75;100.00
56006;BME280;41888;44.696;10.522;2023-02-22T06:03:22;100788.88;;;8.79;100.00
56006;BME280;41888;44.696;10.522;2023-02-22T06:05:48;100787.88;;;8.80;100.00
56006;BME280;41888;44.696;10.522;2023-02-22T06:08:14;100789.38;;;8.82;100.00
56006;BME280;41888;44.696;10.522;2023-02-22T06:10:40;100792.56;;;8.93;100.00
56006;BME280;41888;44.696;10.522;2023-02-22T06:13:06;100786.22;;;8.94;100.00
56006;BME280;41888;44.696;10.522;2023-02-22T06:15:32;100794.91;;;9.02;100.00
56006;BME280;41888;44.696;10.522;2023-02-22T06:18:00;100795.47;;;8.98;100.00
56006;BME280;41888;44.696;10.522;2023-02-22T06:20:27;100806.91;;;8.83;100.00
56006;BME280;41888;44.696;10.522;2023-02-22T06:22:55;100796.50;;;8.82;100.00
56006;BME280;41888;44.696;10.522;2023-02-22T06:25:25;100798.50;;;8.65;100.00
56006;BME280;41888;44.696;10.522;2023-02-22T06:27:52;100800.41;;;8.57;100.00
56006;BME280;41888;44.696;10.522;2023-02-22T06:30:20;100809.41;;;8.56;100.00
56006;BME280;41888;44.696;10.522;2023-02-22T06:32:47;100805.00;;;8.48;100.00
56006;BME280;41888;44.696;10.522;2023-02-22T06:35:14;100814.94;;;8.46;100.00
56006;BME280;41888;44.696;10.522;2023-02-22T06:37:41;100816.25;;;8.50;100.00
56006;BME280;41888;44.696;10.522;2023-02-22T06:40:07;100820.63;;;8.58;100.00
56006;BME280;41888;44.696;10.522;2023-02-22T06:42:36;100819.84;;;8.72;100.00
56006;BME280;41888;44.696;10.522;2023-02-22T06:45:03;100815.06;;;8.97;100.00
56006;BME280;41888;44.696;10.522;2023-02-22T06:47:29;100829.16;;;8.97;100.00
56006;BME280;41888;44.696;10.522;2023-02-22T06:49:56;100820.00;;;8.85;100.00
56006;BME280;41888;44.696;10.522;2023-02-22T06:52:24;100827.50;;;8.81;100.00
56006;BME280;41888;44.696;10.522;2023-02-22T06:54:50;100827.50;;;8.81;100.00
56006;BME280;41888;44.696;10.522;2023-02-22T06:57:17;100827.03;;;9.07;100.00
56006;BME280;41888;44.696;10.522;2023-02-22T06:59:43;100828.97;;;8.99;100.00
56006;BME280;41888;44.696;10.522;2023-02-22T07:02:13;100832.97;;;8.95;100.00
56006;BME280;41888;44.696;10.522;2023-02-22T07:04:39;100834.38;;;8.90;100.00
56006;BME280;41888;44.696;10.522;2023-02-22T07:07:06;100843.06;;;8.84;100.00
56006;BME280;41888;44.696;10.522;2023-02-22T07:09:32;100840.03;;;8.73;100.00
56006;BME280;41888;44.696;10.522;2023-02-22T07:11:58;100839.03;;;8.74;100.00
56006;BME280;41888;44.696;10.522;2023-02-22T07:14:24;100832.72;;;8.75;100.00
56006;BME280;41888;44.696;10.522;2023-02-22T07:16:50;100841.88;;;8.72;100.00
56006;BME280;41888;44.696;10.522;2023-02-22T07:19:16;100841.31;;;8.92;100.00
56006;BME280;41888;44.696;10.522;2023-02-22T07:21:42;100832.53;;;8.91;100.00
56006;BME280;41888;44.696;10.522;2023-02-22T07:24:09;100832.22;;;9.15;100.00
56006;BME280;41888;44.696;10.522;2023-02-22T07:26:42;100839.03;;;9.03;100.00
56006;BME280;41888;44.696;10.522;2023-02-22T07:29:08;100838.28;;;9.09;100.00
56006;BME280;41888;44.696;10.522;2023-02-22T07:31:37;100836.72;;;9.15;100.00
56006;BME280;41888;44.696;10.522;2023-02-22T07:34:03;100832.44;;;9.14;100.00
56006;BME280;41888;44.696;10.522;2023-02-22T07:36:29;100833.31;;;9.21;100.00
56006;BME280;41888;44.696;10.522;2023-02-22T07:38:55;100828.91;;;9.28;100.00
56006;BME280;41888;44.696;10.522;2023-02-22T07:41:21;100835.22;;;9.27;100.00
56006;BME280;41888;44.696;10.522;2023-02-22T07:43:48;100840.88;;;9.39;100.00
56006;BME280;41888;44.696;10.522;2023-02-22T07:46:14;100828.75;;;9.29;100.00
56006;BME280;41888;44.696;10.522;2023-02-22T07:48:41;100832.56;;;9.27;100.00
56006;BME280;41888;44.696;10.522;2023-02-22T07:51:07;100822.97;;;9.26;100.00
56006;BME280;41888;44.696;10.522;2023-02-22T07:53:35;100823.25;;;9.16;100.00
56006;BME280;41888;44.696;10.522;2023-02-22T07:56:03;100828.84;;;9.07;100.00
56006;BME280;41888;44.696;10.522;2023-02-22T07:58:31;100822.28;;;9.03;100.00
56006;BME280;41888;44.696;10.522;2023-02-22T08:00:58;100826.94;;;9.01;100.00
56006;BME280;41888;44.696;10.522;2023-02-22T08:03:25;100824.47;;;8.99;100.00
56006;BME280;41888;44.696;10.522;2023-02-22T08:05:54;100818.16;;;9.00;100.00
56006;BME280;41888;44.696;10.522;2023-02-22T08:08:22;100829.97;;;8.98;100.00
56006;BME280;41888;44.696;10.522;2023-02-22T08:10:49;100822.00;;;8.98;100.00
56006;BME280;41888;44.696;10.522;2023-02-22T08:13:16;100824.66;;;8.98;100.00
56006;BME280;41888;44.696;10.522;2023-02-22T08:15:43;100821.00;;;8.99;100.00
56006;BME280;41888;44.696;10.522;2023-02-22T08:18:11;100819.81;;;9.01;100.00
56006;BME280;41888;44.696;10.522;2023-02-22T08:20:41;100824.28;;;9.01;100.00
56006;BME280;41888;44.696;10.522;2023-02-22T08:23:08;100818.16;;;9.00;100.00
56006;BME280;41888;44.696;10.522;2023-02-22T08:25:35;100820.91;;;9.07;100.00
56006;BME280;41888;44.696;10.522;2023-02-22T08:28:07;100817.84;;;9.10;100.00
56006;BME280;41888;44.696;10.522;2023-02-22T08:30:34;100814.19;;;9.11;100.00
56006;BME280;41888;44.696;10.522;2023-02-22T08:33:02;100817.59;;;9.19;100.00
56006;BME280;41888;44.696;10.522;2023-02-22T08:35:29;100815.91;;;9.33;100.00
56006;BME280;41888;44.696;10.522;2023-02-22T08:37:59;100818.06;;;9.44;100.00
56006;BME280;41888;44.696;10.522;2023-02-22T08:40:28;100813.47;;;9.53;100.00
56006;BME280;41888;44.696;10.522;2023-02-22T08:42:56;100810.22;;;9.57;100.00
56006;BME280;41888;44.696;10.522;2023-02-22T08:45:22;100814.44;;;9.66;100.00
56006;BME280;41888;44.696;10.522;2023-02-22T08:47:48;100817.59;;;9.77;100.00
56006;BME280;41888;44.696;10.522;2023-02-22T08:50:21;100811.72;;;9.81;100.00
56006;BME280;41888;44.696;10.522;2023-02-22T08:52:49;100821.19;;;9.90;100.00
56006;BME280;41888;44.696;10.522;2023-02-22T08:55:19;100812.50;;;10.03;100.00
56006;BME280;41888;44.696;10.522;2023-02-22T08:57:46;100820.09;;;10.06;100.00
56006;BME280;41888;44.696;10.522;2023-02-22T09:00:12;100817.06;;;10.09;100.00
56006;BME280;41888;44.696;10.522;2023-02-22T09:02:38;100807.50;;;10.14;100.00
56006;BME280;41888;44.696;10.522;2023-02-22T09:05:05;100805.94;;;10.20;100.00
56006;BME280;41888;44.696;10.522;2023-02-22T09:07:32;100814.78;;;10.27;100.00
56006;BME280;41888;44.696;10.522;2023-02-22T09:09:58;100813.75;;;10.28;100.00
56006;BME280;41888;44.696;10.522;2023-02-22T09:12:24;100811.50;;;10.25;100.00
56006;BME280;41888;44.696;10.522;2023-02-22T09:14:50;100815.41;;;10.29;100.00
56006;BME280;41888;44.696;10.522;2023-02-22T09:17:16;100807.00;;;10.26;100.00
56006;BME280;41888;44.696;10.522;2023-02-22T09:19:43;100813.38;;;10.10;100.00
56006;BME280;41888;44.696;10.522;2023-02-22T09:22:10;100811.00;;;10.15;100.00
56006;BME280;41888;44.696;10.522;2023-02-22T09:24:36;100808.16;;;10.16;100.00
56006;BME280;41888;44.696;10.522;2023-02-22T09:27:02;100802.38;;;10.13;100.00
56006;BME280;41888;44.696;10.522;2023-02-22T09:29:29;100810.22;;;10.00;100.00
56006;BME280;41888;44.696;10.522;2023-02-22T09:31:56;100816.81;;;10.04;100.00
56006;BME280;41888;44.696;10.522;2023-02-22T09:34:24;100812.38;;;10.11;100.00
56006;BME280;41888;44.696;10.522;2023-02-22T09:36:56;100806.31;;;10.17;100.00
56006;BME280;41888;44.696;10.522;2023-02-22T09:39:23;100814.94;;;10.19;100.00
56006;BME280;41888;44.696;10.522;2023-02-22T09:47:02;100808.69;;;10.12;100.00
56006;BME280;41888;44.696;10.522;2023-02-22T09:49:36;100812.81;;;10.14;100.00
56006;BME280;41888;44.696;10.522;2023-02-22T09:52:15;100814.94;;;10.19;100.00
56006;BME280;41888;44.696;10.522;2023-02-22T09:54:49;100801.41;;;10.21;100.00
56006;BME280;41888;44.696;10.522;2023-02-22T09:57:37;100816.13;;;10.16;100.00
56006;BME280;41888;44.696;10.522;2023-02-22T10:00:17;100812.00;;;10.14;100.00
56006;BME280;41888;44.696;10.522;2023-02-22T10:05:37;100800.03;;;10.25;100.00
56006;BME280;41888;44.696;10.522;2023-02-22T10:08:12;100796.56;;;10.24;100.00
56006;BME280;41888;44.696;10.522;2023-02-22T10:10:41;100798.97;;;10.19;100.00
56006;BME280;41888;44.696;10.522;2023-02-22T10:26:33;100792.09;;;10.31;100.00
56006;BME280;41888;44.696;10.522;2023-02-22T10:29:38;100799.88;;;10.33;100.00
56006;BME280;41888;44.696;10.522;2023-02-22T10:32:10;100787.81;;;10.09;100.00
56006;BME280;41888;44.696;10.522;2023-02-22T10:34:45;100789.59;;;10.23;100.00
56006;BME280;41888;44.696;10.522;2023-02-22T10:37:31;100792.09;;;10.31;100.00
56006;BME280;41888;44.696;10.522;2023-02-22T10:40:14;100788.91;;;10.42;100.00
56006;BME280;41888;44.696;10.522;2023-02-22T10:42:45;100783.81;;;10.47;100.00
56006;BME280;41888;44.696;10.522;2023-02-22T10:45:27;100781.63;;;10.57;100.00
56006;BME280;41888;44.696;10.522;2023-02-22T10:47:55;100775.69;;;10.55;100.00
56006;BME280;41888;44.696;10.522;2023-02-22T10:50:28;100773.84;;;10.56;100.00
56006;BME280;41888;44.696;10.522;2023-02-22T10:52:55;100775.88;;;10.54;100.00
56006;BME280;41888;44.696;10.522;2023-02-22T10:55:21;100770.41;;;10.62;100.00
56006;BME280;41888;44.696;10.522;2023-02-22T10:57:50;100771.47;;;10.68;100.00
56006;BME280;41888;44.696;10.522;2023-02-22T11:00:47;100770.44;;;10.69;100.00
56006;BME280;41888;44.696;10.522;2023-02-22T11:03:21;100765.28;;;10.61;100.00
56006;BME280;41888;44.696;10.522;2023-02-22T11:05:48;100764.03;;;10.56;100.00
56006;BME280;41888;44.696;10.522;2023-02-22T11:10:50;100761.63;;;10.68;100.00
56006;BME280;41888;44.696;10.522;2023-02-22T11:16:22;100747.28;;;10.63;100.00
56006;BME280;41888;44.696;10.522;2023-02-22T11:19:06;100753.28;;;10.78;100.00
56006;BME280;41888;44.696;10.522;2023-02-22T11:21:35;100745.97;;;10.93;100.00
56006;BME280;41888;44.696;10.522;2023-02-22T11:24:09;100742.53;;;10.99;100.00
56006;BME280;41888;44.696;10.522;2023-02-22T11:27:11;100743.56;;;11.11;100.00
56006;BME280;41888;44.696;10.522;2023-02-22T11:29:35;100733.97;;;11.23;100.00
56006;BME280;41888;44.696;10.522;2023-02-22T11:32:13;100729.06;;;11.14;100.00
56006;BME280;41888;44.696;10.522;2023-02-22T11:34:45;100735.38;;;11.06;100.00
56006;BME280;41888;44.696;10.522;2023-02-22T11:39:48;100722.88;;;11.07;100.00
56006;BME280;41888;44.696;10.522;2023-02-22T11:42:28;100716.72;;;11.06;100.00
56006;BME280;41888;44.696;10.522;2023-02-22T11:47:54;100710.38;;;11.07;100.00
56006;BME280;41888;44.696;10.522;2023-02-22T11:56:15;100702.63;;;11.12;100.00
56006;BME280;41888;44.696;10.522;2023-02-22T12:01:45;100691.78;;;11.14;100.00
56006;BME280;41888;44.696;10.522;2023-02-22T12:16:17;100682.56;;;11.42;100.00
56006;BME280;41888;44.696;10.522;2023-02-22T12:19:06;100677.47;;;11.34;100.00
56006;BME280;41888;44.696;10.522;2023-02-22T12:21:38;100672.94;;;11.28;100.00
56006;BME280;41888;44.696;10.522;2023-02-22T12:24:18;100680.09;;;11.21;100.00
56006;BME280;41888;44.696;10.522;2023-02-22T12:27:00;100677.03;;;11.37;100.00
56006;BME280;41888;44.696;10.522;2023-02-22T12:29:35;100667.63;;;11.48;100.00
56006;BME280;41888;44.696;10.522;2023-02-22T12:34:54;100678.69;;;11.71;100.00
56006;BME280;41888;44.696;10.522;2023-02-22T12:37:27;100665.78;;;11.81;100.00
56006;BME280;41888;44.696;10.522;2023-02-22T12:40:30;100659.44;;;11.89;100.00
56006;BME280;41888;44.696;10.522;2023-02-22T12:48:19;100651.84;;;11.86;100.00
56006;BME280;41888;44.696;10.522;2023-02-22T12:50:54;100650.00;;;11.93;100.00
56006;BME280;41888;44.696;10.522;2023-02-22T12:53:32;100652.63;;;12.06;100.00
56006;BME280;41888;44.696;10.522;2023-02-22T13:01:37;100646.84;;;12.22;100.00
56006;BME280;41888;44.696;10.522;2023-02-22T13:04:05;100657.31;;;12.24;100.00
56006;BME280;41888;44.696;10.522;2023-02-22T13:07:01;100647.06;;;12.14;100.00
56006;BME280;41888;44.696;10.522;2023-02-22T13:12:22;100640.72;;;12.15;100.00
56006;BME280;41888;44.696;10.522;2023-02-22T13:23:23;100632.31;;;13.32;100.00
56006;BME280;41888;44.696;10.522;2023-02-22T13:26:13;100630.72;;;13.74;100.00
56006;BME280;41888;44.696;10.522;2023-02-22T13:34:20;100623.53;;;14.29;100.00
56006;BME280;41888;44.696;10.522;2023-02-22T13:36:57;100619.00;;;13.93;100.00
56006;BME280;41888;44.696;10.522;2023-02-22T13:53:55;100612.88;;;12.49;100.00
56006;BME280;41888;44.696;10.522;2023-02-22T13:56:24;100614.31;;;12.45;100.00
56006;BME280;41888;44.696;10.522;2023-02-22T13:59:02;100607.72;;;12.48;100.00
56006;BME280;41888;44.696;10.522;2023-02-22T14:01:36;100609.81;;;12.46;100.00
56006;BME280;41888;44.696;10.522;2023-02-22T14:09:56;100606.97;;;12.41;100.00
56006;BME280;41888;44.696;10.522;2023-02-22T14:15:14;100607.19;;;12.33;100.00
56006;BME280;41888;44.696;10.522;2023-02-22T14:22:40;100601.84;;;12.33;100.00
56006;BME280;41888;44.696;10.522;2023-02-22T14:27:56;100602.72;;;12.26;100.00
56006;BME280;41888;44.696;10.522;2023-02-22T14:30:31;100588.75;;;12.24;100.00
56006;BME280;41888;44.696;10.522;2023-02-22T14:32:59;100597.16;;;12.21;100.00
56006;BME280;41888;44.696;10.522;2023-02-22T14:35:30;100591.66;;;12.16;100.00
56006;BME280;41888;44.696;10.522;2023-02-22T14:38:03;100589.22;;;12.15;100.00
56006;BME280;41888;44.696;10.522;2023-02-22T14:40:31;100595.19;;;12.10;100.00
56006;BME280;41888;44.696;10.522;2023-02-22T14:43:07;100597.84;;;12.10;100.00
56006;BME280;41888;44.696;10.522;2023-02-22T14:45:47;100597.03;;;12.10;100.00
56006;BME280;41888;44.696;10.522;2023-02-22T14:48:35;100600.53;;;12.04;100.00
56006;BME280;41888;44.696;10.522;2023-02-22T14:53:40;100593.75;;;12.01;100.00
56006;BME280;41888;44.696;10.522;2023-02-22T14:56:21;100592.91;;;12.07;100.00
56006;BME280;41888;44.696;10.522;2023-02-22T14:58:57;100591.50;;;12.05;100.00
56006;BME280;41888;44.696;10.522;2023-02-22T15:01:33;100588.63;;;12.06;100.00
56006;BME280;41888;44.696;10.522;2023-02-22T15:04:20;100591.72;;;12.03;100.00
56006;BME280;41888;44.696;10.522;2023-02-22T15:06:47;100592.53;;;12.04;100.00
56006;BME280;41888;44.696;10.522;2023-02-22T15:09:16;100591.09;;;12.01;100.00
56006;BME280;41888;44.696;10.522;2023-02-22T15:11:54;100580.88;;;11.92;100.00
56006;BME280;41888;44.696;10.522;2023-02-22T15:14:36;100586.41;;;11.90;100.00
56006;BME280;41888;44.696;10.522;2023-02-22T15:17:18;100591.34;;;11.87;100.00
56006;BME280;41888;44.696;10.522;2023-02-22T15:19:46;100583.56;;;11.85;100.00
56006;BME280;41888;44.696;10.522;2023-02-22T15:22:28;100583.34;;;11.80;100.00